Airfield :
LOGIN :

Register | Disclaimer

   EN    FR    IT 

 










Legend :    VFR   Marginal VFR   IFR   Intensive IFR   Very Intensive IFR
Visi :
Ceiling :
>= 8 km
>= 3000ft
5 to 8 km
1000 to 3000 ft
1500m to 5 km
500 to 1000 ft
800 to 1500m
200 to 500 ft
< 800m
< 200 ft
Symbols :   Thunderstorms  Fog  Heavy snow  Heavy precipitations  Wind > 20 kt
SIGMETs :     Misc.  Thunderstorms  Icing  Turbulence  Mountain Waves  Volcanic Ashes







- Airport Elevation : 5600 ft
- IATA code : SMV


LSZS - Samedan

CURRENT METAR :
  • 221250Z 29011KT 260V320 9999 FEW060 15/M00 Q1022 RMK O

EXPIRED METARs :
  • 221220Z 29013KT 260V320 9999 FEW060 14/00 Q1022 RMK N
  • 221150Z 30012KT 9999 FEW060 14/M01 Q1022 RMK M
  • 221120Z 30012KT 9999 FEW060 13/M02 Q1022 RMK L
  • 221050Z 32007KT 9999 SCT060 14/M00 Q1022 RMK K
  • 221020Z 31012KT 9999 SCT060 13/M02 Q1023 RMK J

TAF TAF LSZS
Valid from the 22 at 12:00 until the 22 at 21:00 UTC


221125Z 2212/2221 32009KT 9999 SCT060 TX15/2214Z
PROB30
TEMPO 2212/2215 03015G25KT
ATIS : +41 81 834 93 24
No reported NOTAMs for that airfield.



MET'MAP, your aeronautical weather chart ! - Copyright ORBIFLY December 2007 - Disclaimer

ORBIFLY MET'MAP TEAM :

Programming & Development : Alexandra Zaïnal
Concept & Development : Baudouin d'Aumeries
Co-Development & Prog : Marc-Olivier Méhu
Technical & hardware support : Manuel Goepfert

Contact : metmap@orbifly.com




SOURCES & CREDITS :

   NOAA